Meadow Bluff, West Virginia
Current Conditions -  °F | °C
As of 9:15 PM on Thursday 18 Dec 2014 (Local Time) from KLWB Reporting Station
Overcast Overcast  
Wind Chill: 26°   Ceiling: 7500
Heat Index: 32°   Visibility: 10mi
Dew Point: 23°   Wind: 7mph
Humidity: 69%   Direction: 250°WSW
Pressure: 30.08"   Gusts: NA
Location:  37.9°N, 80.65°W
Report Text: KLWB 190215Z AUTO 25006KT 10SM OVC075 00/M05 A3008 RMK AO2 T00001050
Loading
Personal Weather Stations






























Interactive Weather Map New forecast layout! Learn more

10-Day Weather Forecast

Advertisements
Track Severe Weather on mobile